createdAt,value
2019-05-13T00:01:37.300Z,12.30
2019-05-13T00:04:07.345Z,12.30
2019-05-13T00:06:50.213Z,12.30
2019-05-13T00:09:09.498Z,12.30
2019-05-13T00:11:43.636Z,12.30
2019-05-13T00:14:13.548Z,12.30
2019-05-13T00:16:44.932Z,12.30
2019-05-13T00:19:16.150Z,12.30
2019-05-13T00:21:46.253Z,12.30
2019-05-13T00:24:16.295Z,12.30
2019-05-13T00:26:46.325Z,12.30
2019-05-13T00:29:16.437Z,12.30
2019-05-13T00:31:46.567Z,12.30
2019-05-13T00:34:16.627Z,12.30
2019-05-13T00:36:46.683Z,12.30
2019-05-13T00:39:17.033Z,12.30
2019-05-13T00:41:47.082Z,12.30
2019-05-13T00:44:17.122Z,12.30
2019-05-13T00:46:47.141Z,12.30
2019-05-13T00:49:17.223Z,12.30
2019-05-13T00:51:47.287Z,12.30
2019-05-13T00:54:17.413Z,12.30
2019-05-13T00:56:47.448Z,12.30
2019-05-13T00:59:18.164Z,12.30
2019-05-13T01:01:48.198Z,12.30
2019-05-13T01:04:18.227Z,12.20
2019-05-13T01:06:48.242Z,12.20
2019-05-13T01:09:18.355Z,12.30
2019-05-13T01:15:18.980Z,12.20
2019-05-13T01:17:49.410Z,12.20
2019-05-13T01:20:20.409Z,12.10
2019-05-13T01:22:50.449Z,12.10
2019-05-13T01:25:21.006Z,12.20
2019-05-13T01:27:53.602Z,12.20
2019-05-13T01:30:23.888Z,12.20
2019-05-13T01:32:54.139Z,12.20
2019-05-13T01:35:24.386Z,12.20
2019-05-13T01:37:54.434Z,12.20
2019-05-13T01:40:24.782Z,12.20
2019-05-13T01:42:54.818Z,12.20
2019-05-13T01:45:24.863Z,12.20
2019-05-13T01:47:54.904Z,12.20
2019-05-13T01:50:25.249Z,12.20
2019-05-13T01:52:56.364Z,12.20
2019-05-13T01:55:26.705Z,12.20
2019-05-13T01:57:56.740Z,12.20
2019-05-13T02:00:26.775Z,12.20
2019-05-13T02:02:56.903Z,12.20
2019-05-13T02:05:27.835Z,12.20
2019-05-13T02:08:00.678Z,12.20
2019-05-13T02:10:47.189Z,12.20
2019-05-13T02:13:17.205Z,12.20
2019-05-13T02:15:47.245Z,12.20
2019-05-13T02:18:17.285Z,12.10
2019-05-13T02:20:47.573Z,12.10
2019-05-13T02:23:18.296Z,12.20
2019-05-13T02:25:48.417Z,12.20
2019-05-13T02:28:18.526Z,12.20
2019-05-13T02:30:48.644Z,12.20
2019-05-13T02:33:18.746Z,12.20
2019-05-13T02:35:52.686Z,12.20
2019-05-13T02:38:26.342Z,12.10
2019-05-13T02:40:52.992Z,12.20
2019-05-13T02:43:24.363Z,12.10
2019-05-13T02:45:54.845Z,12.20
2019-05-13T02:48:24.881Z,12.20
2019-05-13T02:50:54.990Z,12.20
2019-05-13T02:53:25.044Z,12.10
2019-05-13T02:55:55.085Z,12.10
2019-05-13T02:58:25.636Z,12.10
2019-05-13T03:00:55.821Z,12.20
2019-05-13T03:03:25.849Z,12.10
2019-05-13T03:05:55.890Z,12.10
2019-05-13T03:08:39.854Z,12.10
2019-05-13T03:10:58.038Z,12.10
2019-05-13T03:13:28.083Z,12.10
2019-05-13T03:16:17.143Z,12.10
2019-05-13T03:18:47.255Z,12.10
2019-05-13T03:21:17.386Z,12.10
2019-05-13T03:23:47.409Z,12.10
2019-05-13T03:26:17.836Z,12.10
2019-05-13T03:28:52.166Z,12.10
2019-05-13T03:31:25.618Z,12.10
2019-05-13T03:33:55.943Z,12.10
2019-05-13T03:36:26.086Z,12.10
2019-05-13T03:39:05.585Z,12.10
2019-05-13T03:41:33.056Z,12.10
2019-05-13T03:44:06.309Z,12.10
2019-05-13T03:46:42.307Z,12.10
2019-05-13T03:49:13.679Z,12.10
2019-05-13T03:51:44.067Z,12.10
2019-05-13T03:54:15.413Z,12.00
2019-05-13T03:56:46.267Z,12.00
2019-05-13T03:59:16.340Z,12.00
2019-05-13T04:01:46.500Z,12.00
2019-05-13T04:04:16.731Z,12.00
2019-05-13T04:06:46.767Z,12.00
2019-05-13T04:09:25.498Z,12.10
2019-05-13T04:11:52.332Z,12.10
2019-05-13T04:14:22.919Z,12.10
2019-05-13T04:16:53.325Z,12.10
2019-05-13T04:19:23.884Z,12.00
2019-05-13T04:21:54.888Z,12.00
2019-05-13T04:24:25.327Z,12.00
2019-05-13T04:26:55.703Z,12.00
2019-05-13T04:29:25.815Z,12.00
2019-05-13T04:31:55.871Z,12.10
2019-05-13T04:34:25.911Z,12.00
2019-05-13T04:36:55.980Z,12.00
2019-05-13T04:39:40.301Z,12.00
2019-05-13T04:41:57.801Z,12.10
2019-05-13T04:44:28.519Z,12.10
2019-05-13T04:46:58.621Z,12.10
2019-05-13T04:49:28.655Z,12.10
2019-05-13T04:51:58.755Z,12.10
2019-05-13T04:54:28.798Z,12.10
2019-05-13T04:56:58.859Z,12.10
2019-05-13T04:59:28.911Z,12.10
2019-05-13T05:02:43.263Z,12.10
2019-05-13T05:05:22.572Z,12.10
2019-05-13T05:08:16.226Z,12.10
2019-05-13T05:11:08.155Z,12.10
2019-05-13T05:14:22.252Z,12.00
2019-05-13T05:17:23.872Z,12.00
2019-05-13T05:20:14.560Z,12.00
2019-05-13T05:23:15.584Z,12.00
2019-05-13T05:26:35.769Z,12.00
2019-05-13T05:29:22.962Z,12.00
2019-05-13T05:32:23.561Z,12.00
2019-05-13T05:35:43.731Z,12.00
2019-05-13T05:38:45.987Z,12.10
2019-05-13T05:41:21.464Z,12.10
2019-05-13T05:43:53.931Z,12.20
2019-05-13T05:46:24.966Z,12.20
2019-05-13T05:48:56.221Z,12.20
2019-05-13T05:51:27.877Z,12.20
2019-05-13T05:54:02.464Z,12.30
2019-05-13T05:56:33.789Z,12.30
2019-05-13T05:59:04.351Z,12.30
2019-05-13T06:01:37.347Z,12.30
2019-05-13T06:04:07.005Z,12.40
2019-05-13T06:06:38.661Z,12.40
2019-05-13T06:09:12.176Z,12.40
2019-05-13T06:11:42.690Z,12.50
2019-05-13T06:14:13.343Z,12.50
2019-05-13T06:16:44.323Z,12.50
2019-05-13T06:19:17.723Z,12.50
2019-05-13T06:21:47.030Z,12.60
2019-05-13T06:24:17.090Z,12.60
2019-05-13T06:26:47.931Z,12.60
2019-05-13T06:29:18.093Z,12.60
2019-05-13T06:31:48.139Z,12.60
2019-05-13T06:34:18.221Z,12.60
2019-05-13T06:36:48.434Z,12.70
2019-05-13T06:39:18.584Z,12.70
2019-05-13T06:41:48.863Z,12.70
2019-05-13T06:44:21.257Z,12.70
2019-05-13T06:46:52.373Z,12.70
2019-05-13T06:49:22.513Z,12.70
2019-05-13T06:51:52.929Z,12.70
2019-05-13T06:54:23.154Z,12.80
2019-05-13T06:56:53.179Z,12.80
2019-05-13T06:59:23.285Z,12.80
2019-05-13T07:01:53.383Z,12.80
2019-05-13T07:04:23.855Z,12.80
2019-05-13T07:07:08.940Z,12.90
2019-05-13T07:09:26.448Z,12.90
2019-05-13T07:11:57.122Z,12.90
2019-05-13T07:14:27.382Z,12.90
2019-05-13T07:16:57.441Z,12.90
2019-05-13T07:19:27.546Z,12.90
2019-05-13T07:21:57.700Z,12.90
2019-05-13T07:24:27.710Z,13.00
2019-05-13T07:26:58.511Z,13.00
2019-05-13T07:29:32.130Z,13.00
2019-05-13T07:32:01.992Z,13.00
2019-05-13T07:34:33.907Z,13.10
2019-05-13T07:37:04.279Z,13.10
2019-05-13T07:39:36.015Z,13.10
2019-05-13T07:42:06.198Z,13.20
2019-05-13T07:44:36.840Z,13.20
2019-05-13T07:47:06.882Z,13.20
2019-05-13T07:49:36.902Z,13.20
2019-05-13T07:52:06.964Z,13.20
2019-05-13T07:54:37.068Z,13.20
2019-05-13T07:57:07.948Z,13.30
2019-05-13T07:59:38.024Z,13.30
2019-05-13T08:02:08.137Z,13.30
2019-05-13T08:04:38.176Z,13.30
2019-05-13T08:07:08.309Z,13.30
2019-05-13T08:09:38.325Z,13.30
2019-05-13T08:12:11.008Z,13.30
2019-05-13T08:14:43.332Z,13.30
2019-05-13T08:17:12.712Z,13.30
2019-05-13T08:19:43.961Z,13.40
2019-05-13T08:22:14.020Z,13.40
2019-05-13T08:24:44.057Z,13.50
2019-05-13T08:27:14.188Z,13.50
2019-05-13T08:29:44.382Z,13.50
2019-05-13T08:32:14.547Z,13.50
2019-05-13T08:34:44.590Z,13.40
2019-05-13T08:37:15.662Z,13.50
2019-05-13T08:39:45.714Z,13.40
2019-05-13T08:42:19.797Z,13.40
2019-05-13T08:44:48.693Z,13.50
2019-05-13T08:47:18.748Z,13.40
2019-05-13T08:49:48.783Z,13.50
2019-05-13T08:52:19.238Z,13.50
2019-05-13T08:54:52.199Z,13.50
2019-05-13T08:57:22.141Z,13.50
2019-05-13T08:59:53.064Z,13.50
2019-05-13T09:02:23.191Z,13.60
2019-05-13T09:04:53.251Z,13.60
2019-05-13T09:07:24.473Z,13.70
2019-05-13T09:09:55.100Z,13.70
2019-05-13T09:12:32.128Z,13.70
2019-05-13T09:14:56.898Z,13.70
2019-05-13T09:17:26.994Z,13.70
2019-05-13T09:19:57.104Z,13.70
2019-05-13T09:22:28.326Z,13.70
2019-05-13T09:24:58.447Z,13.70
2019-05-13T09:27:28.486Z,13.70
2019-05-13T09:29:58.528Z,13.70
2019-05-13T09:32:28.560Z,13.80
2019-05-13T09:35:11.988Z,13.80
2019-05-13T09:37:42.577Z,13.90
2019-05-13T09:40:13.258Z,13.90
2019-05-13T09:42:49.180Z,13.90
2019-05-13T09:45:16.288Z,13.90
2019-05-13T09:47:46.322Z,13.90
2019-05-13T09:50:28.561Z,13.90
2019-05-13T09:52:51.235Z,13.90
2019-05-13T09:55:28.477Z,13.90
2019-05-13T09:57:53.179Z,13.80
2019-05-13T10:00:23.214Z,13.90
2019-05-13T10:02:53.951Z,13.90
2019-05-13T10:05:27.245Z,13.90
2019-05-13T10:07:57.385Z,13.90
2019-05-13T10:10:27.410Z,13.90
2019-05-13T10:13:09.236Z,13.90
2019-05-13T10:15:32.578Z,13.90
2019-05-13T10:18:03.472Z,13.80
2019-05-13T10:20:47.316Z,13.80
2019-05-13T10:23:18.015Z,13.90
2019-05-13T10:25:52.166Z,13.80
2019-05-13T10:28:23.967Z,13.90
2019-05-13T10:30:54.626Z,13.90
2019-05-13T10:33:25.056Z,13.90
2019-05-13T10:35:56.582Z,13.90
2019-05-13T10:38:27.875Z,13.90
2019-05-13T10:41:02.788Z,13.90
2019-05-13T10:43:32.331Z,14.00
2019-05-13T10:46:03.590Z,14.00
2019-05-13T10:48:33.631Z,14.00
2019-05-13T10:51:03.681Z,14.00
2019-05-13T10:53:33.980Z,14.10
2019-05-13T10:56:05.517Z,14.20
2019-05-13T10:58:35.635Z,14.20
2019-05-13T11:01:06.063Z,14.30
2019-05-13T11:03:36.083Z,14.40
2019-05-13T11:06:06.543Z,14.40
2019-05-13T11:08:36.568Z,14.40
2019-05-13T11:11:07.050Z,14.40
2019-05-13T11:13:53.338Z,14.40
2019-05-13T11:16:12.196Z,14.40
2019-05-13T11:18:42.222Z,14.40
2019-05-13T11:21:13.175Z,14.40
2019-05-13T11:23:43.660Z,14.50
2019-05-13T11:26:13.800Z,14.40
2019-05-13T11:28:43.996Z,14.50
2019-05-13T11:31:14.217Z,14.50
2019-05-13T11:33:44.315Z,14.50
2019-05-13T11:36:18.929Z,14.60
2019-05-13T11:38:46.922Z,14.60
2019-05-13T11:41:17.194Z,14.70
2019-05-13T11:44:08.172Z,14.70
2019-05-13T11:46:21.967Z,14.80
2019-05-13T11:48:52.070Z,14.80
2019-05-13T11:51:24.089Z,14.80
2019-05-13T11:53:54.856Z,14.80
2019-05-13T11:56:25.801Z,14.80
2019-05-13T11:58:55.932Z,14.80
2019-05-13T12:01:26.259Z,14.80
2019-05-13T12:03:56.498Z,14.70
2019-05-13T12:06:26.615Z,14.70
2019-05-13T12:08:57.822Z,14.70
2019-05-13T12:11:28.144Z,14.70
2019-05-13T12:13:58.679Z,14.70
2019-05-13T12:16:28.705Z,14.70
2019-05-13T12:18:58.983Z,14.70
2019-05-13T12:21:29.510Z,14.70
2019-05-13T12:24:07.229Z,14.70
2019-05-13T12:26:33.308Z,14.70
2019-05-13T12:29:03.567Z,14.70
2019-05-13T12:31:33.878Z,14.70
2019-05-13T12:34:04.624Z,14.70
2019-05-13T12:36:35.038Z,14.70
2019-05-13T12:39:07.076Z,14.80
2019-05-13T12:41:37.191Z,14.90
2019-05-13T12:44:07.437Z,14.90
2019-05-13T12:46:37.483Z,14.90
2019-05-13T12:49:07.621Z,14.90
2019-05-13T12:51:37.670Z,15.00
2019-05-13T12:54:08.252Z,14.90
2019-05-13T12:56:38.883Z,14.90
2019-05-13T12:59:12.887Z,14.90
2019-05-13T13:01:41.548Z,14.90
2019-05-13T13:04:12.580Z,14.90
2019-05-13T13:06:45.473Z,14.90
2019-05-13T13:09:15.211Z,15.00
2019-05-13T13:11:45.413Z,15.00
2019-05-13T13:14:16.953Z,15.10
2019-05-13T13:16:47.610Z,15.10
2019-05-13T13:19:17.682Z,15.10
2019-05-13T13:21:47.731Z,15.10
2019-05-13T13:24:17.793Z,15.20
2019-05-13T13:26:47.924Z,15.10
2019-05-13T13:29:18.136Z,15.20
2019-05-13T13:31:48.312Z,15.10
2019-05-13T13:34:18.968Z,15.10
2019-05-13T13:36:50.131Z,15.10
2019-05-13T13:39:25.454Z,15.10
2019-05-13T13:41:53.754Z,15.20
2019-05-13T13:44:25.164Z,15.30
2019-05-13T13:46:55.927Z,15.30
2019-05-13T13:49:25.957Z,15.40
2019-05-13T13:51:56.004Z,15.50
2019-05-13T13:54:27.275Z,15.50
2019-05-13T13:56:57.723Z,15.60
2019-05-13T13:59:27.780Z,15.60
2019-05-13T14:01:57.958Z,15.60
2019-05-13T14:04:28.081Z,15.60
2019-05-13T14:09:30.075Z,15.60
2019-05-13T14:12:02.001Z,15.50
2019-05-13T14:14:32.372Z,15.50
2019-05-13T14:17:02.581Z,15.50
2019-05-13T14:19:33.823Z,15.50
2019-05-13T14:22:04.181Z,15.50
2019-05-13T14:24:34.336Z,15.50
2019-05-13T14:27:04.441Z,15.50
2019-05-13T14:29:40.490Z,15.50
2019-05-13T14:32:06.711Z,15.60
2019-05-13T14:34:36.775Z,15.60
2019-05-13T14:37:07.286Z,15.60
2019-05-13T14:39:37.343Z,15.70
2019-05-13T14:42:08.061Z,15.70
2019-05-13T14:44:38.175Z,15.70
2019-05-13T14:47:08.603Z,15.70
2019-05-13T14:49:39.109Z,15.70
2019-05-13T14:52:11.263Z,15.70
2019-05-13T14:54:42.033Z,15.70
2019-05-13T14:57:15.010Z,15.70
2019-05-13T14:59:45.539Z,15.70
2019-05-13T15:02:15.586Z,15.70
2019-05-13T15:04:45.711Z,15.70
2019-05-13T15:07:16.111Z,15.70
2019-05-13T15:09:46.164Z,15.80
2019-05-13T15:12:16.377Z,15.70
2019-05-13T15:14:47.181Z,15.80
2019-05-13T15:17:17.339Z,15.80
2019-05-13T15:19:47.651Z,15.80
2019-05-13T15:22:17.787Z,15.80
2019-05-13T15:24:48.018Z,15.80
2019-05-13T15:27:22.009Z,15.80
2019-05-13T15:29:51.608Z,15.70
2019-05-13T15:32:22.516Z,15.80
2019-05-13T15:34:52.627Z,15.80
2019-05-13T15:37:22.853Z,15.80
2019-05-13T15:39:52.879Z,15.80
2019-05-13T15:42:23.385Z,15.80
2019-05-13T15:44:53.539Z,15.80
2019-05-13T15:47:26.799Z,15.70
2019-05-13T15:49:55.992Z,15.80
2019-05-13T15:52:26.426Z,15.80
2019-05-13T15:54:56.925Z,15.70
2019-05-13T15:57:27.078Z,15.70
2019-05-13T16:03:32.485Z,15.70
2019-05-13T16:06:02.627Z,15.70
2019-05-13T16:08:32.781Z,15.60
2019-05-13T16:11:02.940Z,15.60
2019-05-13T16:13:33.192Z,15.60
2019-05-13T16:16:03.581Z,15.60
2019-05-13T16:18:33.659Z,15.60
2019-05-13T16:21:03.786Z,15.70
2019-05-13T16:23:33.933Z,15.60
2019-05-13T16:26:04.138Z,15.60
2019-05-13T16:28:34.267Z,15.60
2019-05-13T16:31:04.329Z,15.70
2019-05-13T16:33:34.387Z,15.60
2019-05-13T16:36:05.756Z,15.70
2019-05-13T16:38:36.423Z,15.70
2019-05-13T16:41:06.557Z,15.70
2019-05-13T16:43:37.002Z,15.70
2019-05-13T16:46:07.381Z,15.70
2019-05-13T16:48:37.718Z,15.70
2019-05-13T16:51:07.771Z,15.70
2019-05-13T16:53:37.812Z,15.70
2019-05-13T16:56:07.883Z,15.70
2019-05-13T16:58:37.991Z,15.70
2019-05-13T17:01:08.056Z,15.70
2019-05-13T17:03:38.088Z,15.70
2019-05-13T17:06:08.176Z,15.70
2019-05-13T17:08:38.777Z,15.70
2019-05-13T17:11:11.560Z,15.70
2019-05-13T17:13:42.142Z,15.70
2019-05-13T17:16:12.849Z,15.70
2019-05-13T17:18:42.917Z,15.70
2019-05-13T17:21:12.981Z,15.70
2019-05-13T17:23:43.011Z,15.60
2019-05-13T17:26:13.742Z,15.60
2019-05-13T17:28:43.956Z,15.70
2019-05-13T17:31:14.010Z,15.60
2019-05-13T17:33:44.122Z,15.70
2019-05-13T17:36:15.762Z,15.70
2019-05-13T17:38:45.888Z,15.60
2019-05-13T17:41:16.095Z,15.50
2019-05-13T17:43:46.340Z,15.60
2019-05-13T17:46:16.717Z,15.60
2019-05-13T17:48:47.274Z,15.60
2019-05-13T17:51:18.107Z,15.60
2019-05-13T17:53:48.232Z,15.60
2019-05-13T17:56:18.408Z,15.60
2019-05-13T17:58:48.522Z,15.60
2019-05-13T18:01:21.093Z,15.60
2019-05-13T18:03:51.782Z,15.60
2019-05-13T18:06:22.288Z,15.60
2019-05-13T18:08:52.365Z,15.60
2019-05-13T18:11:22.886Z,15.60
2019-05-13T18:13:52.989Z,15.60
2019-05-13T18:16:23.346Z,15.60
2019-05-13T18:18:53.502Z,15.60
2019-05-13T18:21:23.645Z,15.50
2019-05-13T18:23:53.736Z,15.50
2019-05-13T18:26:23.847Z,15.50
2019-05-13T18:28:54.405Z,15.50
2019-05-13T18:31:25.067Z,15.50
2019-05-13T18:33:55.450Z,15.50
2019-05-13T18:36:26.752Z,15.50
2019-05-13T18:38:56.873Z,15.50
2019-05-13T18:41:26.935Z,15.50
2019-05-13T18:43:57.460Z,15.40
2019-05-13T18:46:27.488Z,15.40
2019-05-13T18:48:59.222Z,15.40
2019-05-13T18:51:31.593Z,15.40
2019-05-13T18:54:01.800Z,15.40
2019-05-13T18:56:32.233Z,15.40
2019-05-13T18:59:02.763Z,15.40
2019-05-13T19:01:33.954Z,15.40
2019-05-13T19:04:04.065Z,15.40
2019-05-13T19:06:34.320Z,15.30
2019-05-13T19:09:06.092Z,15.30
2019-05-13T19:11:36.421Z,15.30
2019-05-13T19:14:08.221Z,15.30
2019-05-13T19:16:38.270Z,15.30
2019-05-13T19:19:13.436Z,15.20
2019-05-13T19:21:41.675Z,15.20
2019-05-13T19:24:13.336Z,15.20
2019-05-13T19:26:43.755Z,15.20
2019-05-13T19:29:14.361Z,15.20
2019-05-13T19:31:44.469Z,15.10
2019-05-13T19:34:15.033Z,15.10
2019-05-13T19:36:45.212Z,15.10
2019-05-13T19:39:15.445Z,15.10
2019-05-13T19:41:45.632Z,15.10
2019-05-13T19:44:15.839Z,15.10
2019-05-13T19:46:47.091Z,15.00
2019-05-13T19:49:29.753Z,15.10
2019-05-13T19:51:51.973Z,15.00
2019-05-13T19:54:22.255Z,15.00
2019-05-13T19:56:52.521Z,15.00
2019-05-13T19:59:22.655Z,15.00
2019-05-13T20:01:52.879Z,14.90
2019-05-13T20:04:23.015Z,15.00
2019-05-13T20:06:53.429Z,14.90
2019-05-13T20:09:23.672Z,14.90
2019-05-13T20:11:55.421Z,14.90
2019-05-13T20:14:26.161Z,14.90
2019-05-13T20:16:58.572Z,14.80
2019-05-13T20:19:45.710Z,14.80
2019-05-13T20:22:02.691Z,14.80
2019-05-13T20:24:33.650Z,14.80
2019-05-13T20:27:04.021Z,14.80
2019-05-13T20:29:34.610Z,14.80
2019-05-13T20:32:05.700Z,14.80
2019-05-13T20:34:36.148Z,14.70
2019-05-13T20:37:06.242Z,14.70
2019-05-13T20:39:36.380Z,14.80
2019-05-13T20:42:06.854Z,14.70
2019-05-13T20:44:37.005Z,14.70
2019-05-13T20:47:07.093Z,14.70
2019-05-13T20:49:37.305Z,14.70
2019-05-13T20:52:07.928Z,14.70
2019-05-13T20:54:38.345Z,14.70
2019-05-13T20:57:08.524Z,14.70
2019-05-13T20:59:41.191Z,14.70
2019-05-13T21:02:12.420Z,14.70
2019-05-13T21:04:42.430Z,14.70
2019-05-13T21:07:12.593Z,14.70
2019-05-13T21:09:42.788Z,14.70
2019-05-13T21:12:12.924Z,14.70
2019-05-13T21:14:43.013Z,14.70
2019-05-13T21:17:13.536Z,14.70
2019-05-13T21:19:44.381Z,14.70
2019-05-13T21:22:14.660Z,14.70
2019-05-13T21:24:44.742Z,14.70
2019-05-13T21:27:14.786Z,14.70
2019-05-13T21:29:44.816Z,14.70
2019-05-13T21:32:17.593Z,14.70
2019-05-13T21:34:46.996Z,14.70
2019-05-13T21:37:17.105Z,14.70
2019-05-13T21:39:47.196Z,14.60
2019-05-13T21:42:17.343Z,14.60
2019-05-13T21:44:47.510Z,14.70
2019-05-13T21:47:17.568Z,14.60
2019-05-13T21:49:47.605Z,14.60
2019-05-13T21:52:17.713Z,14.60
2019-05-13T21:54:48.133Z,14.60
2019-05-13T21:57:18.470Z,14.60
2019-05-13T21:59:51.450Z,14.60
2019-05-13T22:02:23.245Z,14.60
2019-05-13T22:04:52.963Z,14.60
2019-05-13T22:07:23.124Z,14.60
2019-05-13T22:09:53.243Z,14.60
2019-05-13T22:12:23.371Z,14.50
2019-05-13T22:14:54.609Z,14.50
2019-05-13T22:17:24.723Z,14.50
2019-05-13T22:19:54.813Z,14.50
2019-05-13T22:22:24.939Z,14.50
2019-05-13T22:24:55.544Z,14.50
2019-05-13T22:27:25.654Z,14.50
2019-05-13T22:29:55.705Z,14.50
2019-05-13T22:32:25.740Z,14.40
2019-05-13T22:34:55.748Z,14.50
2019-05-13T22:37:26.065Z,14.40
2019-05-13T22:39:56.141Z,14.40
2019-05-13T22:42:26.199Z,14.40
2019-05-13T22:44:56.369Z,14.30
2019-05-13T22:47:26.513Z,14.30
2019-05-13T22:49:56.966Z,14.30
2019-05-13T22:52:27.135Z,14.30
2019-05-13T22:54:57.196Z,14.30
2019-05-13T22:57:27.238Z,14.30
2019-05-13T22:59:57.284Z,14.30
2019-05-13T23:02:27.308Z,14.20
2019-05-13T23:04:57.501Z,14.20
2019-05-13T23:07:27.565Z,14.20
2019-05-13T23:09:57.609Z,14.20
2019-05-13T23:12:27.761Z,14.10
2019-05-13T23:14:57.819Z,14.10
2019-05-13T23:17:27.863Z,14.10
2019-05-13T23:19:57.866Z,14.10
2019-05-13T23:22:28.333Z,14.10
2019-05-13T23:24:58.449Z,14.00
2019-05-13T23:27:28.503Z,14.00
2019-05-13T23:30:00.985Z,14.00
2019-05-13T23:32:32.030Z,14.00
2019-05-13T23:35:02.613Z,13.90
2019-05-13T23:37:32.933Z,13.90
2019-05-13T23:40:03.667Z,13.90
2019-05-13T23:42:33.711Z,13.90
2019-05-13T23:45:03.785Z,13.80
2019-05-13T23:47:34.123Z,13.80
2019-05-13T23:50:06.046Z,13.80
2019-05-13T23:52:36.400Z,13.80
2019-05-13T23:55:06.840Z,13.80
2019-05-13T23:57:37.929Z,13.70
